createdAt,value
2022-08-14T00:02:03.099Z,25.30
2022-08-14T00:04:45.120Z,25.30
2022-08-14T00:07:14.114Z,25.30
2022-08-14T00:09:56.182Z,25.40
2022-08-14T00:12:39.117Z,25.20
2022-08-14T00:15:15.382Z,25.20
2022-08-14T00:17:48.208Z,25.20
2022-08-14T00:20:30.581Z,25.10
2022-08-14T00:23:12.076Z,25.10
2022-08-14T00:25:42.796Z,25.10
2022-08-14T00:28:15.571Z,25.00
2022-08-14T00:30:45.741Z,25.00
2022-08-14T00:33:15.329Z,24.90
2022-08-14T00:36:37.002Z,24.90
2022-08-14T00:38:32.018Z,24.80
2022-08-14T00:41:03.032Z,24.80
2022-08-14T00:43:32.203Z,24.70
2022-08-14T00:46:08.030Z,24.70
2022-08-14T00:48:38.235Z,24.60
2022-08-14T00:51:09.706Z,24.60
2022-08-14T00:53:37.603Z,24.50
2022-08-14T00:56:08.566Z,24.50
2022-08-14T00:58:38.937Z,24.50
2022-08-14T01:01:14.507Z,24.60
2022-08-14T01:03:44.694Z,24.60
2022-08-14T01:06:18.424Z,24.60
2022-08-14T01:08:52.394Z,24.40
2022-08-14T01:11:25.914Z,24.50
2022-08-14T01:14:18.183Z,24.40
2022-08-14T01:16:52.843Z,24.40
2022-08-14T01:19:39.228Z,24.40
2022-08-14T01:22:12.794Z,24.20
2022-08-14T01:24:43.411Z,24.20
2022-08-14T01:27:24.152Z,24.10
2022-08-14T01:30:03.128Z,24.10
2022-08-14T01:32:37.560Z,24.00
2022-08-14T01:35:18.128Z,24.00
2022-08-14T01:37:56.914Z,24.00
2022-08-14T01:40:36.460Z,24.00
2022-08-14T01:43:18.849Z,23.90
2022-08-14T01:45:57.972Z,23.80
2022-08-14T01:48:37.123Z,23.70
2022-08-14T01:51:19.340Z,23.70
2022-08-14T01:53:54.699Z,23.60
2022-08-14T01:56:37.320Z,23.50
2022-08-14T01:59:09.792Z,23.40
2022-08-14T02:01:38.037Z,23.30
2022-08-14T02:04:40.629Z,23.30
2022-08-14T02:06:56.985Z,23.20
2022-08-14T02:09:24.794Z,23.20
2022-08-14T02:11:54.596Z,23.10
2022-08-14T02:14:31.944Z,23.20
2022-08-14T02:17:00.343Z,23.30
2022-08-14T02:19:31.750Z,23.30
2022-08-14T02:22:02.963Z,23.30
2022-08-14T02:24:38.806Z,23.20
2022-08-14T02:28:25.869Z,22.90
2022-08-14T02:30:01.133Z,22.90
2022-08-14T02:32:36.689Z,22.80
2022-08-14T02:35:13.917Z,22.80
2022-08-14T02:37:47.534Z,22.80
2022-08-14T02:40:20.973Z,22.80
2022-08-14T02:43:00.389Z,22.60
2022-08-14T02:45:38.234Z,22.60
2022-08-14T02:49:03.906Z,22.60
2022-08-14T02:51:01.474Z,22.60
2022-08-14T02:53:31.295Z,22.60
2022-08-14T02:56:02.552Z,22.60
2022-08-14T02:58:32.851Z,22.50
2022-08-14T03:01:01.614Z,22.40
2022-08-14T03:03:31.801Z,22.40
2022-08-14T03:06:00.405Z,22.40
2022-08-14T03:08:31.845Z,22.40
2022-08-14T03:11:07.617Z,22.40
2022-08-14T03:13:35.962Z,22.40
2022-08-14T03:16:05.815Z,22.30
2022-08-14T03:18:42.531Z,22.30
2022-08-14T03:21:15.185Z,22.30
2022-08-14T03:23:44.041Z,22.30
2022-08-14T03:26:18.228Z,22.30
2022-08-14T03:28:57.362Z,22.30
2022-08-14T03:31:29.399Z,22.20
2022-08-14T03:33:59.833Z,22.20
2022-08-14T03:37:39.353Z,22.20
2022-08-14T03:39:21.985Z,22.20
2022-08-14T03:41:51.010Z,22.10
2022-08-14T03:45:25.297Z,22.10
2022-08-14T03:47:05.073Z,22.10
2022-08-14T03:49:32.276Z,22.00
2022-08-14T03:52:04.944Z,21.90
2022-08-14T03:54:52.380Z,22.00
2022-08-14T03:57:20.346Z,21.90
2022-08-14T03:59:51.048Z,22.00
2022-08-14T04:02:32.901Z,21.90
2022-08-14T04:05:12.291Z,21.90
2022-08-14T04:07:49.377Z,21.80
2022-08-14T04:10:17.679Z,21.90
2022-08-14T04:13:03.509Z,21.80
2022-08-14T04:15:31.118Z,21.80
2022-08-14T04:17:58.945Z,21.80
2022-08-14T04:20:28.481Z,21.80
2022-08-14T04:22:55.705Z,21.80
2022-08-14T04:25:24.417Z,21.70
2022-08-14T04:28:03.179Z,21.80
2022-08-14T04:30:33.121Z,21.80
2022-08-14T04:33:06.246Z,21.70
2022-08-14T04:35:56.540Z,21.90
2022-08-14T04:38:42.748Z,21.90
2022-08-14T04:41:30.232Z,21.90
2022-08-14T04:43:57.761Z,21.80
2022-08-14T04:46:55.528Z,21.90
2022-08-14T04:49:15.030Z,21.80
2022-08-14T04:51:55.436Z,21.80
2022-08-14T04:54:24.633Z,21.90
2022-08-14T04:56:51.628Z,21.70
2022-08-14T04:59:22.373Z,21.70
2022-08-14T05:01:52.847Z,21.60
2022-08-14T05:04:24.916Z,21.60
2022-08-14T05:06:54.236Z,21.70
2022-08-14T05:09:28.827Z,21.50
2022-08-14T05:12:59.316Z,21.50
2022-08-14T05:14:54.609Z,21.50
2022-08-14T05:17:32.176Z,21.50
2022-08-14T05:21:04.235Z,21.50
2022-08-14T05:22:59.810Z,21.50
2022-08-14T05:25:30.972Z,21.50
2022-08-14T05:28:28.551Z,21.50
2022-08-14T05:30:58.155Z,21.60
2022-08-14T05:33:28.509Z,21.60
2022-08-14T05:36:02.826Z,22.00
2022-08-14T05:38:35.211Z,22.00
2022-08-14T05:41:06.563Z,22.10
2022-08-14T05:43:41.626Z,22.20
2022-08-14T05:46:15.333Z,22.30
2022-08-14T05:48:43.151Z,22.40
2022-08-14T05:51:11.033Z,22.40
2022-08-14T05:53:42.405Z,22.50
2022-08-14T05:56:09.746Z,22.70
2022-08-14T05:58:41.402Z,22.70
2022-08-14T06:01:09.662Z,22.90
2022-08-14T06:03:37.243Z,23.00
2022-08-14T06:06:07.515Z,23.20
2022-08-14T06:08:36.334Z,23.30
2022-08-14T06:11:09.311Z,23.30
2022-08-14T06:13:45.743Z,23.40
2022-08-14T06:16:17.919Z,23.50
2022-08-14T06:18:53.047Z,23.70
2022-08-14T06:21:24.050Z,23.80
2022-08-14T06:23:51.606Z,23.90
2022-08-14T06:26:20.524Z,24.00
2022-08-14T06:28:52.500Z,24.00
2022-08-14T06:31:21.101Z,24.20
2022-08-14T06:35:10.205Z,24.20
2022-08-14T06:36:38.514Z,24.40
2022-08-14T06:39:08.217Z,24.60
2022-08-14T06:41:56.689Z,24.70
2022-08-14T06:44:32.348Z,24.70
2022-08-14T06:47:01.458Z,24.80
2022-08-14T06:49:30.161Z,24.80
2022-08-14T06:51:57.429Z,25.00
2022-08-14T06:54:31.666Z,25.20
2022-08-14T06:56:58.666Z,25.30
2022-08-14T06:59:25.512Z,25.40
2022-08-14T07:02:13.673Z,25.40
2022-08-14T07:05:05.170Z,25.60
2022-08-14T07:07:39.920Z,25.60
2022-08-14T07:10:16.703Z,25.80
2022-08-14T07:13:02.078Z,26.00
2022-08-14T07:15:32.323Z,26.20
2022-08-14T07:18:00.423Z,26.40
2022-08-14T07:20:30.865Z,26.30
2022-08-14T07:23:07.788Z,26.40
2022-08-14T07:25:38.008Z,26.40
2022-08-14T07:28:43.452Z,26.60
2022-08-14T07:31:12.507Z,26.80
2022-08-14T07:33:46.675Z,26.80
2022-08-14T07:36:26.476Z,26.90
2022-08-14T07:38:56.667Z,26.90
2022-08-14T07:41:23.873Z,27.10
2022-08-14T07:43:55.627Z,27.10
2022-08-14T07:46:28.622Z,27.30
2022-08-14T07:48:57.310Z,27.20
2022-08-14T07:51:24.642Z,27.10
2022-08-14T07:53:57.249Z,27.00
2022-08-14T07:56:47.673Z,27.10
2022-08-14T07:59:18.106Z,27.30
2022-08-14T08:01:48.252Z,27.10
2022-08-14T08:04:25.243Z,27.10
2022-08-14T08:06:54.941Z,27.20
2022-08-14T08:09:31.799Z,27.20
2022-08-14T08:12:04.962Z,27.40
2022-08-14T08:14:55.435Z,27.50
2022-08-14T08:17:24.852Z,27.60
2022-08-14T08:19:52.293Z,27.70
2022-08-14T08:22:22.012Z,27.80
2022-08-14T08:24:50.571Z,27.80
2022-08-14T08:27:21.477Z,27.80
2022-08-14T08:29:50.791Z,27.90
2022-08-14T08:32:18.488Z,27.90
2022-08-14T08:34:46.946Z,27.90
2022-08-14T08:37:15.289Z,28.00
2022-08-14T08:40:03.229Z,27.90
2022-08-14T08:42:38.864Z,28.10
2022-08-14T08:45:17.428Z,28.10
2022-08-14T08:47:45.378Z,28.20
2022-08-14T08:53:10.799Z,28.80
2022-08-14T08:55:44.026Z,29.30
2022-08-14T08:58:25.392Z,29.40
2022-08-14T09:00:58.629Z,29.60
2022-08-14T09:03:28.103Z,29.70
2022-08-14T09:07:00.661Z,29.80
2022-08-14T09:08:52.738Z,30.00
2022-08-14T09:11:21.431Z,30.50
2022-08-14T09:13:51.447Z,31.20
2022-08-14T09:16:23.625Z,31.50
2022-08-14T09:18:53.020Z,31.50
2022-08-14T09:21:21.251Z,31.60
2022-08-14T09:24:26.709Z,31.90
2022-08-14T09:26:43.988Z,31.70
2022-08-14T09:29:17.240Z,31.90
2022-08-14T09:31:53.011Z,32.60
2022-08-14T09:34:27.984Z,32.90
2022-08-14T09:37:40.065Z,33.10
2022-08-14T09:40:47.725Z,33.60
2022-08-14T09:43:46.868Z,33.70
2022-08-14T09:46:16.942Z,33.40
2022-08-14T09:49:05.008Z,33.50
2022-08-14T09:51:44.006Z,33.70
2022-08-14T09:54:22.321Z,33.70
2022-08-14T09:56:57.454Z,33.50
2022-08-14T09:59:28.353Z,33.60
2022-08-14T10:01:59.728Z,33.80
2022-08-14T10:04:34.437Z,33.40
2022-08-14T10:07:05.540Z,32.80
2022-08-14T10:09:33.523Z,32.60
2022-08-14T10:12:04.816Z,32.60
2022-08-14T10:14:36.917Z,32.50
2022-08-14T10:17:08.479Z,32.50
2022-08-14T10:19:46.916Z,32.40
2022-08-14T10:23:15.284Z,32.30
2022-08-14T10:25:15.375Z,32.10
2022-08-14T10:27:46.725Z,32.00
2022-08-14T10:30:22.573Z,31.90
2022-08-14T10:32:53.604Z,31.90
2022-08-14T10:35:31.056Z,31.90
2022-08-14T10:38:01.486Z,32.00
2022-08-14T10:40:38.265Z,32.00
2022-08-14T10:43:19.120Z,32.50
2022-08-14T10:46:03.575Z,32.90
2022-08-14T10:49:04.276Z,33.20
2022-08-14T10:51:39.793Z,33.60
2022-08-14T10:54:35.046Z,33.80
2022-08-14T10:56:59.549Z,34.00
2022-08-14T10:59:30.960Z,34.80
2022-08-14T11:02:02.546Z,35.10
2022-08-14T11:04:30.846Z,35.90
2022-08-14T11:06:58.559Z,36.20
2022-08-14T11:09:26.073Z,36.50
2022-08-14T11:12:35.131Z,37.10
2022-08-14T11:15:02.485Z,37.00
2022-08-14T11:17:32.764Z,36.30
2022-08-14T11:20:01.417Z,36.80
2022-08-14T11:22:55.994Z,37.20
2022-08-14T11:25:23.604Z,37.40
2022-08-14T11:27:53.441Z,36.90
2022-08-14T11:30:50.710Z,36.60
2022-08-14T11:33:13.040Z,36.70
2022-08-14T11:35:44.302Z,36.60
2022-08-14T11:38:16.994Z,36.20
2022-08-14T11:40:46.980Z,36.00
2022-08-14T11:43:16.373Z,35.70
2022-08-14T11:45:48.324Z,35.40
2022-08-14T11:49:02.469Z,35.80
2022-08-14T11:51:24.197Z,35.90
2022-08-14T11:53:57.530Z,35.70
2022-08-14T11:56:29.775Z,35.80
2022-08-14T11:58:57.677Z,35.70
2022-08-14T12:01:31.237Z,35.80
2022-08-14T12:04:32.051Z,35.90
2022-08-14T12:07:01.733Z,35.50
2022-08-14T12:09:37.373Z,35.60
2022-08-14T12:12:35.065Z,35.90
2022-08-14T12:15:06.928Z,35.90
2022-08-14T12:17:52.027Z,36.00
2022-08-14T12:20:30.200Z,36.00
2022-08-14T12:23:01.463Z,35.90
2022-08-14T12:25:29.352Z,35.90
2022-08-14T12:27:59.175Z,36.10
2022-08-14T12:30:37.657Z,36.10
2022-08-14T12:33:31.120Z,36.20
2022-08-14T12:36:04.116Z,36.10
2022-08-14T12:38:43.734Z,36.00
2022-08-14T12:41:21.137Z,36.00
2022-08-14T12:43:53.618Z,36.40
2022-08-14T12:46:28.615Z,36.70
2022-08-14T12:48:59.162Z,36.70
2022-08-14T12:51:28.736Z,36.70
2022-08-14T12:53:59.626Z,36.30
2022-08-14T12:56:32.950Z,36.70
2022-08-14T12:59:02.420Z,36.70
2022-08-14T13:02:00.337Z,37.00
2022-08-14T13:04:20.598Z,37.20
2022-08-14T13:06:50.621Z,36.90
2022-08-14T13:09:20.023Z,37.00
2022-08-14T13:11:59.180Z,36.90
2022-08-14T13:14:49.388Z,37.20
2022-08-14T13:17:17.155Z,37.10
2022-08-14T13:19:46.180Z,36.90
2022-08-14T13:22:29.042Z,37.10
2022-08-14T13:25:02.920Z,37.00
2022-08-14T13:27:39.500Z,37.00
2022-08-14T13:30:21.402Z,37.20
2022-08-14T13:32:53.259Z,37.20
2022-08-14T13:35:20.696Z,37.60
2022-08-14T13:37:52.179Z,37.70
2022-08-14T13:40:26.655Z,37.50
2022-08-14T13:42:56.686Z,37.20
2022-08-14T13:45:33.944Z,37.10
2022-08-14T13:48:28.535Z,37.30
2022-08-14T13:51:07.999Z,37.30
2022-08-14T13:54:07.099Z,37.20
2022-08-14T13:56:37.822Z,37.00
2022-08-14T13:59:06.470Z,37.00
2022-08-14T14:01:43.699Z,36.50
2022-08-14T14:04:19.125Z,36.10
2022-08-14T14:06:48.673Z,35.90
2022-08-14T14:09:21.395Z,35.60
2022-08-14T14:11:52.905Z,35.20
2022-08-14T14:14:44.742Z,35.00
2022-08-14T14:17:12.568Z,34.80
2022-08-14T14:19:43.276Z,34.70
2022-08-14T14:22:13.415Z,34.80
2022-08-14T14:25:00.628Z,35.00
2022-08-14T14:27:44.221Z,35.00
2022-08-14T14:30:46.986Z,35.00
2022-08-14T14:33:05.048Z,34.90
2022-08-14T14:35:38.522Z,34.80
2022-08-14T14:38:09.153Z,34.90
2022-08-14T14:40:50.494Z,35.00
2022-08-14T14:43:22.763Z,35.40
2022-08-14T14:45:52.842Z,35.30
2022-08-14T14:48:20.440Z,35.50
2022-08-14T14:50:53.116Z,35.70
2022-08-14T14:53:21.402Z,35.90
2022-08-14T14:56:47.401Z,36.00
2022-08-14T14:58:37.515Z,35.90
2022-08-14T15:01:08.711Z,35.90
2022-08-14T15:03:39.801Z,35.70
2022-08-14T15:06:08.798Z,35.70
2022-08-14T15:08:56.400Z,35.80
2022-08-14T15:11:26.576Z,35.40
2022-08-14T15:13:57.891Z,35.10
2022-08-14T15:16:24.993Z,35.30
2022-08-14T15:18:52.910Z,35.20
2022-08-14T15:21:20.143Z,35.10
2022-08-14T15:23:48.110Z,35.10
2022-08-14T15:26:24.503Z,35.20
2022-08-14T15:29:05.931Z,35.30
2022-08-14T15:31:36.132Z,35.30
2022-08-14T15:34:45.497Z,35.40
2022-08-14T15:37:02.493Z,35.40
2022-08-14T15:39:35.339Z,35.70
2022-08-14T15:42:14.547Z,35.70
2022-08-14T15:44:57.998Z,35.40
2022-08-14T15:47:28.252Z,35.10
2022-08-14T15:50:01.209Z,35.20
2022-08-14T15:52:37.158Z,35.00
2022-08-14T15:55:07.788Z,34.80
2022-08-14T15:57:35.691Z,34.70
2022-08-14T16:00:43.717Z,34.80
2022-08-14T16:03:15.861Z,34.70
2022-08-14T16:05:46.045Z,34.80
2022-08-14T16:08:24.317Z,34.50
2022-08-14T16:10:58.260Z,34.50
2022-08-14T16:13:41.372Z,34.50
2022-08-14T16:16:35.017Z,34.30
2022-08-14T16:19:07.223Z,34.40
2022-08-14T16:21:39.544Z,34.40
2022-08-14T16:24:06.723Z,34.30
2022-08-14T16:26:34.861Z,34.00
2022-08-14T16:29:04.833Z,34.10
2022-08-14T16:31:35.653Z,34.20
2022-08-14T16:34:45.470Z,34.10
2022-08-14T16:36:54.465Z,34.10
2022-08-14T16:39:22.954Z,34.20
2022-08-14T16:41:58.776Z,34.10
2022-08-14T16:44:38.080Z,33.90
2022-08-14T16:47:13.206Z,33.80
2022-08-14T16:50:04.829Z,33.70
2022-08-14T16:52:44.418Z,33.80
2022-08-14T16:55:17.917Z,33.90
2022-08-14T16:57:50.321Z,33.70
2022-08-14T17:00:43.626Z,33.60
2022-08-14T17:03:12.582Z,33.50
2022-08-14T17:05:43.067Z,33.40
2022-08-14T17:08:33.251Z,33.40
2022-08-14T17:11:10.919Z,33.60
2022-08-14T17:13:58.556Z,33.50
2022-08-14T17:16:37.407Z,33.50
2022-08-14T17:19:09.707Z,33.40
2022-08-14T17:21:41.964Z,33.40
2022-08-14T17:24:57.175Z,33.20
2022-08-14T17:27:03.749Z,33.20
2022-08-14T17:29:33.728Z,33.20
2022-08-14T17:32:21.862Z,33.10
2022-08-14T17:34:51.103Z,33.20
2022-08-14T17:37:24.207Z,33.10
2022-08-14T17:40:17.645Z,33.30
2022-08-14T17:45:41.100Z,32.40
2022-08-14T17:49:15.673Z,32.10
2022-08-14T17:51:14.545Z,32.00
2022-08-14T17:53:53.430Z,32.00
2022-08-14T17:56:30.931Z,31.60
2022-08-14T17:59:05.306Z,31.40
2022-08-14T18:01:37.833Z,31.40
2022-08-14T18:04:28.517Z,31.30
2022-08-14T18:07:08.661Z,31.30
2022-08-14T18:09:56.134Z,31.30
2022-08-14T18:12:31.886Z,31.10
2022-08-14T18:15:12.253Z,30.70
2022-08-14T18:17:52.883Z,30.80
2022-08-14T18:21:41.869Z,30.80
2022-08-14T18:23:12.983Z,30.70
2022-08-14T18:25:59.952Z,30.50
2022-08-14T18:28:50.828Z,30.60
2022-08-14T18:31:22.789Z,30.60
2022-08-14T18:34:07.337Z,30.40
2022-08-14T18:36:56.715Z,30.30
2022-08-14T18:39:28.243Z,30.40
2022-08-14T18:42:23.548Z,30.10
2022-08-14T18:44:50.936Z,30.20
2022-08-14T18:47:21.807Z,29.90
2022-08-14T18:49:57.971Z,29.80
2022-08-14T18:52:52.808Z,29.60
2022-08-14T18:55:20.793Z,29.70
2022-08-14T18:57:58.211Z,29.60
2022-08-14T19:00:32.246Z,29.40
2022-08-14T19:03:05.175Z,29.40
2022-08-14T19:05:47.817Z,29.50
2022-08-14T19:08:18.853Z,29.40
2022-08-14T19:11:04.144Z,29.50
2022-08-14T19:13:48.912Z,29.50
2022-08-14T19:16:23.425Z,29.40
2022-08-14T19:18:53.763Z,29.60
2022-08-14T19:21:52.260Z,29.50
2022-08-14T19:24:44.199Z,29.40
2022-08-14T19:27:19.519Z,29.30
2022-08-14T19:29:51.282Z,29.40
2022-08-14T19:32:39.679Z,29.30
2022-08-14T19:35:48.819Z,29.30
2022-08-14T19:38:47.892Z,29.10
2022-08-14T19:41:17.200Z,28.90
2022-08-14T19:43:55.601Z,29.20
2022-08-14T19:46:39.194Z,29.00
2022-08-14T19:49:23.450Z,29.10
2022-08-14T19:52:04.260Z,29.10
2022-08-14T19:54:46.902Z,29.00
2022-08-14T19:57:21.474Z,28.70
2022-08-14T19:59:59.740Z,28.80
2022-08-14T20:02:30.066Z,28.70
2022-08-14T20:05:05.616Z,28.50
2022-08-14T20:08:00.727Z,28.50
2022-08-14T20:11:03.672Z,28.50
2022-08-14T20:13:29.279Z,28.60
2022-08-14T20:16:02.734Z,28.60
2022-08-14T20:18:49.984Z,28.50
2022-08-14T20:21:18.296Z,28.60
2022-08-14T20:23:47.881Z,28.70
2022-08-14T20:26:31.207Z,28.70
2022-08-14T20:29:04.329Z,28.60
2022-08-14T20:31:36.621Z,28.50
2022-08-14T20:34:24.310Z,28.50
2022-08-14T20:37:02.052Z,28.50
2022-08-14T20:39:34.018Z,28.60
2022-08-14T20:42:38.596Z,28.50
2022-08-14T20:45:21.626Z,28.30
2022-08-14T20:48:01.033Z,28.30
2022-08-14T20:50:30.440Z,28.40
2022-08-14T20:53:00.342Z,28.20
2022-08-14T20:55:41.738Z,27.90
2022-08-14T20:58:43.315Z,27.90
2022-08-14T21:01:32.556Z,27.60
2022-08-14T21:04:02.307Z,27.50
2022-08-14T21:07:22.777Z,27.50
2022-08-14T21:10:05.284Z,27.40
2022-08-14T21:12:32.721Z,27.40
2022-08-14T21:15:01.810Z,27.40
2022-08-14T21:17:30.227Z,27.50
2022-08-14T21:19:57.351Z,27.40
2022-08-14T21:22:25.559Z,27.30
2022-08-14T21:25:02.030Z,27.20
2022-08-14T21:27:37.334Z,27.30
2022-08-14T21:30:08.660Z,27.40
2022-08-14T21:32:50.457Z,27.50
2022-08-14T21:35:25.918Z,27.60
2022-08-14T21:37:53.900Z,27.70
2022-08-14T21:40:40.908Z,27.60
2022-08-14T21:43:18.157Z,27.20
2022-08-14T21:45:53.360Z,27.10
2022-08-14T21:48:26.440Z,27.20
2022-08-14T21:51:53.646Z,27.20
2022-08-14T21:53:58.175Z,27.10
2022-08-14T21:56:39.002Z,27.00
2022-08-14T21:59:17.780Z,26.80
2022-08-14T22:02:01.582Z,26.60
2022-08-14T22:04:39.976Z,26.80
2022-08-14T22:07:12.206Z,26.90
2022-08-14T22:09:42.792Z,26.60
2022-08-14T22:12:47.306Z,26.80
2022-08-14T22:15:01.899Z,26.80
2022-08-14T22:17:32.404Z,26.90
2022-08-14T22:20:02.588Z,26.70
2022-08-14T22:22:32.599Z,26.50
2022-08-14T22:25:01.221Z,26.40
2022-08-14T22:27:32.465Z,26.20
2022-08-14T22:30:00.567Z,26.40
2022-08-14T22:32:56.094Z,26.60
2022-08-14T22:35:15.974Z,26.70
2022-08-14T22:37:44.813Z,26.70
2022-08-14T22:40:48.377Z,26.60
2022-08-14T22:43:08.153Z,26.50
2022-08-14T22:45:37.799Z,26.50
2022-08-14T22:48:11.093Z,26.50
2022-08-14T22:50:51.070Z,26.40
2022-08-14T22:53:21.739Z,26.50
2022-08-14T22:55:52.008Z,26.00
2022-08-14T22:58:30.264Z,25.80
2022-08-14T23:01:01.378Z,25.90
2022-08-14T23:03:34.059Z,25.90
2022-08-14T23:06:02.264Z,26.10
2022-08-14T23:08:59.939Z,26.20
2022-08-14T23:11:16.332Z,26.20
2022-08-14T23:13:46.255Z,25.90
2022-08-14T23:16:20.115Z,25.80
2022-08-14T23:18:53.471Z,25.90
2022-08-14T23:21:24.607Z,26.00
2022-08-14T23:23:54.998Z,26.00
2022-08-14T23:26:47.701Z,25.90
2022-08-14T23:29:12.070Z,25.80
2022-08-14T23:31:40.066Z,25.60
2022-08-14T23:34:20.465Z,25.60
2022-08-14T23:36:54.481Z,25.60
2022-08-14T23:39:30.974Z,25.60
2022-08-14T23:42:07.595Z,25.60
2022-08-14T23:44:37.676Z,25.90
2022-08-14T23:47:11.619Z,26.00
2022-08-14T23:50:01.375Z,26.00
2022-08-14T23:52:55.633Z,25.80
2022-08-14T23:55:29.038Z,25.50
2022-08-14T23:57:58.457Z,25.40
